sensor_id;sensor_type;location;lat;lon;timestamp;P1;durP1;ratioP1;P2;durP2;ratioP2
29242;SDS011;21110;48.036;15.780;2023-02-21T00:01:51;14.35;;;6.68;;
29242;SDS011;21110;48.036;15.780;2023-02-21T00:04:36;16.20;;;6.47;;
29242;SDS011;21110;48.036;15.780;2023-02-21T00:07:20;14.18;;;6.32;;
29242;SDS011;21110;48.036;15.780;2023-02-21T00:10:05;16.17;;;6.75;;
29242;SDS011;21110;48.036;15.780;2023-02-21T00:12:50;14.77;;;6.15;;
29242;SDS011;21110;48.036;15.780;2023-02-21T00:15:34;16.67;;;6.63;;
29242;SDS011;21110;48.036;15.780;2023-02-21T00:18:18;13.30;;;6.43;;
29242;SDS011;21110;48.036;15.780;2023-02-21T00:21:03;12.45;;;6.38;;
29242;SDS011;21110;48.036;15.780;2023-02-21T00:23:47;10.25;;;6.20;;
29242;SDS011;21110;48.036;15.780;2023-02-21T00:26:31;11.88;;;6.13;;
29242;SDS011;21110;48.036;15.780;2023-02-21T00:29:16;11.45;;;6.45;;
29242;SDS011;21110;48.036;15.780;2023-02-21T00:32:00;13.18;;;6.75;;
29242;SDS011;21110;48.036;15.780;2023-02-21T00:34:44;13.27;;;6.40;;
29242;SDS011;21110;48.036;15.780;2023-02-21T00:37:28;14.55;;;6.80;;
29242;SDS011;21110;48.036;15.780;2023-02-21T00:40:13;11.05;;;5.88;;
29242;SDS011;21110;48.036;15.780;2023-02-21T00:42:58;12.45;;;6.68;;
29242;SDS011;21110;48.036;15.780;2023-02-21T00:45:42;11.23;;;6.28;;
29242;SDS011;21110;48.036;15.780;2023-02-21T00:48:27;10.25;;;5.85;;
29242;SDS011;21110;48.036;15.780;2023-02-21T00:51:11;10.70;;;6.28;;
29242;SDS011;21110;48.036;15.780;2023-02-21T00:53:55;12.65;;;6.05;;
29242;SDS011;21110;48.036;15.780;2023-02-21T00:56:40;10.18;;;6.13;;
29242;SDS011;21110;48.036;15.780;2023-02-21T00:59:24;11.77;;;5.78;;
29242;SDS011;21110;48.036;15.780;2023-02-21T01:02:08;13.38;;;6.75;;
29242;SDS011;21110;48.036;15.780;2023-02-21T01:04:53;10.63;;;6.03;;
29242;SDS011;21110;48.036;15.780;2023-02-21T01:07:38;12.40;;;5.72;;
29242;SDS011;21110;48.036;15.780;2023-02-21T01:10:22;9.98;;;5.90;;
29242;SDS011;21110;48.036;15.780;2023-02-21T01:13:06;13.02;;;5.55;;
29242;SDS011;21110;48.036;15.780;2023-02-21T01:15:50;12.05;;;6.28;;
29242;SDS011;21110;48.036;15.780;2023-02-21T01:18:35;8.65;;;5.22;;
29242;SDS011;21110;48.036;15.780;2023-02-21T01:21:19;11.65;;;5.70;;
29242;SDS011;21110;48.036;15.780;2023-02-21T01:24:03;9.32;;;5.72;;
29242;SDS011;21110;48.036;15.780;2023-02-21T01:26:49;9.48;;;5.43;;
29242;SDS011;21110;48.036;15.780;2023-02-21T01:29:33;10.35;;;5.70;;
29242;SDS011;21110;48.036;15.780;2023-02-21T01:32:18;11.23;;;5.63;;
29242;SDS011;21110;48.036;15.780;2023-02-21T01:35:02;9.52;;;5.05;;
29242;SDS011;21110;48.036;15.780;2023-02-21T01:37:48;8.73;;;5.35;;
29242;SDS011;21110;48.036;15.780;2023-02-21T01:40:32;8.90;;;5.10;;
29242;SDS011;21110;48.036;15.780;2023-02-21T01:43:17;8.80;;;5.32;;
29242;SDS011;21110;48.036;15.780;2023-02-21T01:46:03;8.63;;;5.50;;
29242;SDS011;21110;48.036;15.780;2023-02-21T01:48:48;9.23;;;5.18;;
29242;SDS011;21110;48.036;15.780;2023-02-21T01:51:37;8.23;;;5.00;;
29242;SDS011;21110;48.036;15.780;2023-02-21T01:54:23;8.77;;;5.00;;
29242;SDS011;21110;48.036;15.780;2023-02-21T01:57:11;8.85;;;4.80;;
29242;SDS011;21110;48.036;15.780;2023-02-21T01:59:56;10.45;;;5.20;;
29242;SDS011;21110;48.036;15.780;2023-02-21T02:02:59;9.45;;;4.97;;
29242;SDS011;21110;48.036;15.780;2023-02-21T02:05:49;8.35;;;5.30;;
29242;SDS011;21110;48.036;15.780;2023-02-21T02:08:45;7.72;;;4.90;;
29242;SDS011;21110;48.036;15.780;2023-02-21T02:14:47;8.95;;;5.22;;
29242;SDS011;21110;48.036;15.780;2023-02-21T02:36:19;8.07;;;4.75;;
29242;SDS011;21110;48.036;15.780;2023-02-21T02:38:58;5.90;;;3.97;;
29242;SDS011;21110;48.036;15.780;2023-02-21T02:46:48;6.22;;;4.20;;
29242;SDS011;21110;48.036;15.780;2023-02-21T02:49:18;7.82;;;4.32;;
29242;SDS011;21110;48.036;15.780;2023-02-21T02:51:47;7.70;;;4.28;;
29242;SDS011;21110;48.036;15.780;2023-02-21T02:54:14;6.32;;;4.00;;
29242;SDS011;21110;48.036;15.780;2023-02-21T02:56:39;7.30;;;4.10;;
29242;SDS011;21110;48.036;15.780;2023-02-21T02:59:06;6.82;;;4.10;;
29242;SDS011;21110;48.036;15.780;2023-02-21T03:01:58;6.75;;;4.10;;
29242;SDS011;21110;48.036;15.780;2023-02-21T03:10:11;6.28;;;3.80;;
29242;SDS011;21110;48.036;15.780;2023-02-21T03:13:01;4.55;;;3.72;;
29242;SDS011;21110;48.036;15.780;2023-02-21T03:15:48;6.55;;;4.40;;
29242;SDS011;21110;48.036;15.780;2023-02-21T03:18:24;5.60;;;3.67;;
29242;SDS011;21110;48.036;15.780;2023-02-21T03:21:03;5.50;;;3.80;;
29242;SDS011;21110;48.036;15.780;2023-02-21T03:23:33;6.03;;;4.10;;
29242;SDS011;21110;48.036;15.780;2023-02-21T03:26:02;5.22;;;3.88;;
29242;SDS011;21110;48.036;15.780;2023-02-21T03:28:30;6.05;;;3.88;;
29242;SDS011;21110;48.036;15.780;2023-02-21T03:30:58;5.70;;;3.90;;
29242;SDS011;21110;48.036;15.780;2023-02-21T03:33:25;5.68;;;4.28;;
29242;SDS011;21110;48.036;15.780;2023-02-21T03:35:51;6.85;;;3.80;;
29242;SDS011;21110;48.036;15.780;2023-02-21T03:38:18;5.72;;;3.70;;
29242;SDS011;21110;48.036;15.780;2023-02-21T03:40:43;5.47;;;4.05;;
29242;SDS011;21110;48.036;15.780;2023-02-21T03:43:09;5.25;;;3.60;;
29242;SDS011;21110;48.036;15.780;2023-02-21T03:45:35;6.35;;;3.63;;
29242;SDS011;21110;48.036;15.780;2023-02-21T03:48:01;6.22;;;4.15;;
29242;SDS011;21110;48.036;15.780;2023-02-21T03:50:27;6.68;;;3.90;;
29242;SDS011;21110;48.036;15.780;2023-02-21T03:52:52;5.45;;;3.90;;
29242;SDS011;21110;48.036;15.780;2023-02-21T03:55:18;5.07;;;3.70;;
29242;SDS011;21110;48.036;15.780;2023-02-21T03:57:44;4.63;;;3.72;;
29242;SDS011;21110;48.036;15.780;2023-02-21T04:00:11;4.80;;;3.42;;
29242;SDS011;21110;48.036;15.780;2023-02-21T04:02:37;4.97;;;3.67;;
29242;SDS011;21110;48.036;15.780;2023-02-21T04:05:03;5.65;;;3.55;;
29242;SDS011;21110;48.036;15.780;2023-02-21T04:07:29;5.53;;;3.80;;
29242;SDS011;21110;48.036;15.780;2023-02-21T04:09:55;4.35;;;3.53;;
29242;SDS011;21110;48.036;15.780;2023-02-21T04:12:20;5.78;;;3.67;;
29242;SDS011;21110;48.036;15.780;2023-02-21T04:14:46;5.43;;;3.78;;
29242;SDS011;21110;48.036;15.780;2023-02-21T04:17:12;4.20;;;3.60;;
29242;SDS011;21110;48.036;15.780;2023-02-21T04:19:37;5.13;;;3.70;;
29242;SDS011;21110;48.036;15.780;2023-02-21T04:22:03;4.70;;;3.60;;
29242;SDS011;21110;48.036;15.780;2023-02-21T04:24:29;5.57;;;3.88;;
29242;SDS011;21110;48.036;15.780;2023-02-21T04:26:54;6.20;;;3.92;;
29242;SDS011;21110;48.036;15.780;2023-02-21T04:29:20;4.30;;;3.90;;
29242;SDS011;21110;48.036;15.780;2023-02-21T04:31:45;4.47;;;3.58;;
29242;SDS011;21110;48.036;15.780;2023-02-21T04:34:11;4.72;;;3.67;;
29242;SDS011;21110;48.036;15.780;2023-02-21T04:36:37;4.07;;;3.53;;
29242;SDS011;21110;48.036;15.780;2023-02-21T04:39:04;4.55;;;3.53;;
29242;SDS011;21110;48.036;15.780;2023-02-21T04:41:30;3.88;;;3.00;;
29242;SDS011;21110;48.036;15.780;2023-02-21T04:43:55;4.43;;;3.40;;
29242;SDS011;21110;48.036;15.780;2023-02-21T04:46:21;4.60;;;3.38;;
29242;SDS011;21110;48.036;15.780;2023-02-21T04:48:48;4.35;;;3.33;;
29242;SDS011;21110;48.036;15.780;2023-02-21T04:51:16;4.80;;;3.50;;
29242;SDS011;21110;48.036;15.780;2023-02-21T04:53:45;3.85;;;3.20;;
29242;SDS011;21110;48.036;15.780;2023-02-21T04:56:12;4.43;;;3.42;;
29242;SDS011;21110;48.036;15.780;2023-02-21T04:58:38;3.90;;;3.50;;
29242;SDS011;21110;48.036;15.780;2023-02-21T05:01:04;5.57;;;3.65;;
29242;SDS011;21110;48.036;15.780;2023-02-21T05:03:29;5.85;;;3.30;;
29242;SDS011;21110;48.036;15.780;2023-02-21T05:05:55;3.75;;;3.22;;
29242;SDS011;21110;48.036;15.780;2023-02-21T05:08:21;4.38;;;3.50;;
29242;SDS011;21110;48.036;15.780;2023-02-21T05:10:48;3.80;;;3.35;;
29242;SDS011;21110;48.036;15.780;2023-02-21T05:13:14;5.75;;;3.22;;
29242;SDS011;21110;48.036;15.780;2023-02-21T05:15:39;4.43;;;3.45;;
29242;SDS011;21110;48.036;15.780;2023-02-21T05:18:05;3.63;;;3.22;;
29242;SDS011;21110;48.036;15.780;2023-02-21T05:20:31;3.25;;;2.95;;
29242;SDS011;21110;48.036;15.780;2023-02-21T05:22:56;3.78;;;3.28;;
29242;SDS011;21110;48.036;15.780;2023-02-21T05:25:22;4.18;;;3.40;;
29242;SDS011;21110;48.036;15.780;2023-02-21T05:27:49;4.75;;;3.65;;
29242;SDS011;21110;48.036;15.780;2023-02-21T05:30:16;3.67;;;3.15;;
29242;SDS011;21110;48.036;15.780;2023-02-21T05:32:43;5.50;;;3.35;;
29242;SDS011;21110;48.036;15.780;2023-02-21T05:35:09;4.50;;;3.33;;
29242;SDS011;21110;48.036;15.780;2023-02-21T05:37:37;3.88;;;3.15;;
29242;SDS011;21110;48.036;15.780;2023-02-21T05:40:02;5.18;;;3.20;;
29242;SDS011;21110;48.036;15.780;2023-02-21T05:42:29;5.00;;;3.78;;
29242;SDS011;21110;48.036;15.780;2023-02-21T05:44:55;4.53;;;3.28;;
29242;SDS011;21110;48.036;15.780;2023-02-21T05:47:21;4.13;;;3.17;;
29242;SDS011;21110;48.036;15.780;2023-02-21T05:49:46;6.22;;;3.28;;
29242;SDS011;21110;48.036;15.780;2023-02-21T05:52:12;5.50;;;3.20;;
29242;SDS011;21110;48.036;15.780;2023-02-21T05:54:40;6.68;;;3.63;;
29242;SDS011;21110;48.036;15.780;2023-02-21T05:57:06;6.30;;;3.60;;
29242;SDS011;21110;48.036;15.780;2023-02-21T05:59:32;7.70;;;3.33;;
29242;SDS011;21110;48.036;15.780;2023-02-21T06:01:57;6.72;;;3.40;;
29242;SDS011;21110;48.036;15.780;2023-02-21T06:04:23;6.47;;;3.72;;
29242;SDS011;21110;48.036;15.780;2023-02-21T06:06:49;4.47;;;3.60;;
29242;SDS011;21110;48.036;15.780;2023-02-21T06:09:15;9.35;;;3.50;;
29242;SDS011;21110;48.036;15.780;2023-02-21T06:11:42;6.85;;;3.70;;
29242;SDS011;21110;48.036;15.780;2023-02-21T06:14:13;5.28;;;3.40;;
29242;SDS011;21110;48.036;15.780;2023-02-21T06:16:40;4.97;;;3.22;;
29242;SDS011;21110;48.036;15.780;2023-02-21T06:19:06;4.78;;;3.50;;
29242;SDS011;21110;48.036;15.780;2023-02-21T06:21:33;6.65;;;3.13;;
29242;SDS011;21110;48.036;15.780;2023-02-21T06:24:02;7.32;;;3.83;;
29242;SDS011;21110;48.036;15.780;2023-02-21T06:26:28;5.45;;;3.30;;
29242;SDS011;21110;48.036;15.780;2023-02-21T06:28:54;5.38;;;3.17;;
29242;SDS011;21110;48.036;15.780;2023-02-21T06:31:20;5.22;;;3.67;;
29242;SDS011;21110;48.036;15.780;2023-02-21T06:33:46;7.30;;;3.30;;
29242;SDS011;21110;48.036;15.780;2023-02-21T06:36:14;5.25;;;3.20;;
29242;SDS011;21110;48.036;15.780;2023-02-21T06:38:48;5.15;;;3.40;;
29242;SDS011;21110;48.036;15.780;2023-02-21T06:41:16;4.93;;;3.10;;
29242;SDS011;21110;48.036;15.780;2023-02-21T06:43:48;7.13;;;3.15;;
29242;SDS011;21110;48.036;15.780;2023-02-21T06:46:15;4.70;;;3.03;;
29242;SDS011;21110;48.036;15.780;2023-02-21T06:48:42;7.05;;;3.25;;
29242;SDS011;21110;48.036;15.780;2023-02-21T06:51:07;5.05;;;3.38;;
29242;SDS011;21110;48.036;15.780;2023-02-21T06:53:35;6.72;;;3.10;;
29242;SDS011;21110;48.036;15.780;2023-02-21T06:56:01;5.50;;;3.40;;
29242;SDS011;21110;48.036;15.780;2023-02-21T06:58:27;3.20;;;2.80;;
29242;SDS011;21110;48.036;15.780;2023-02-21T07:00:53;4.97;;;3.35;;
29242;SDS011;21110;48.036;15.780;2023-02-21T07:03:18;4.65;;;3.17;;
29242;SDS011;21110;48.036;15.780;2023-02-21T07:05:44;6.30;;;3.10;;
29242;SDS011;21110;48.036;15.780;2023-02-21T07:08:11;5.00;;;3.00;;
29242;SDS011;21110;48.036;15.780;2023-02-21T07:10:36;4.07;;;2.80;;
29242;SDS011;21110;48.036;15.780;2023-02-21T07:13:02;2.95;;;2.67;;
29242;SDS011;21110;48.036;15.780;2023-02-21T07:15:28;5.22;;;3.03;;
29242;SDS011;21110;48.036;15.780;2023-02-21T07:17:53;4.07;;;3.17;;
29242;SDS011;21110;48.036;15.780;2023-02-21T07:20:19;4.72;;;3.20;;
29242;SDS011;21110;48.036;15.780;2023-02-21T07:22:45;4.70;;;3.22;;
29242;SDS011;21110;48.036;15.780;2023-02-21T07:25:13;6.75;;;3.03;;
29242;SDS011;21110;48.036;15.780;2023-02-21T07:27:40;5.30;;;3.22;;
29242;SDS011;21110;48.036;15.780;2023-02-21T07:30:05;4.22;;;2.83;;
29242;SDS011;21110;48.036;15.780;2023-02-21T07:32:31;3.20;;;2.90;;
29242;SDS011;21110;48.036;15.780;2023-02-21T07:34:57;4.40;;;2.90;;
29242;SDS011;21110;48.036;15.780;2023-02-21T07:37:23;3.55;;;2.90;;
29242;SDS011;21110;48.036;15.780;2023-02-21T07:39:48;3.97;;;3.03;;
29242;SDS011;21110;48.036;15.780;2023-02-21T07:42:14;3.70;;;2.90;;
29242;SDS011;21110;48.036;15.780;2023-02-21T07:44:39;4.32;;;2.88;;
29242;SDS011;21110;48.036;15.780;2023-02-21T07:47:05;3.67;;;3.00;;
29242;SDS011;21110;48.036;15.780;2023-02-21T07:49:31;3.03;;;2.70;;
29242;SDS011;21110;48.036;15.780;2023-02-21T07:52:00;5.75;;;2.75;;
29242;SDS011;21110;48.036;15.780;2023-02-21T07:54:26;4.25;;;3.05;;
29242;SDS011;21110;48.036;15.780;2023-02-21T07:56:52;3.53;;;3.00;;
29242;SDS011;21110;48.036;15.780;2023-02-21T07:59:17;4.70;;;3.00;;
29242;SDS011;21110;48.036;15.780;2023-02-21T08:01:43;3.72;;;2.95;;
29242;SDS011;21110;48.036;15.780;2023-02-21T08:04:09;7.43;;;3.15;;
29242;SDS011;21110;48.036;15.780;2023-02-21T08:06:35;3.17;;;2.75;;
29242;SDS011;21110;48.036;15.780;2023-02-21T08:09:01;3.22;;;2.83;;
29242;SDS011;21110;48.036;15.780;2023-02-21T08:11:28;3.50;;;2.90;;
29242;SDS011;21110;48.036;15.780;2023-02-21T08:13:54;4.05;;;2.80;;
29242;SDS011;21110;48.036;15.780;2023-02-21T08:16:19;5.28;;;2.92;;
29242;SDS011;21110;48.036;15.780;2023-02-21T08:18:48;3.50;;;2.80;;
29242;SDS011;21110;48.036;15.780;2023-02-21T08:21:14;4.28;;;2.80;;
29242;SDS011;21110;48.036;15.780;2023-02-21T08:23:40;3.47;;;2.83;;
29242;SDS011;21110;48.036;15.780;2023-02-21T08:26:06;3.15;;;2.85;;
29242;SDS011;21110;48.036;15.780;2023-02-21T08:28:32;3.03;;;2.72;;
29242;SDS011;21110;48.036;15.780;2023-02-21T08:30:57;4.15;;;3.03;;
29242;SDS011;21110;48.036;15.780;2023-02-21T08:33:23;2.85;;;2.53;;
29242;SDS011;21110;48.036;15.780;2023-02-21T08:35:49;3.20;;;2.60;;
29242;SDS011;21110;48.036;15.780;2023-02-21T08:38:16;3.75;;;2.75;;
29242;SDS011;21110;48.036;15.780;2023-02-21T08:40:43;2.80;;;2.60;;
29242;SDS011;21110;48.036;15.780;2023-02-21T08:43:09;4.90;;;2.88;;
29242;SDS011;21110;48.036;15.780;2023-02-21T08:45:35;4.25;;;2.90;;
29242;SDS011;21110;48.036;15.780;2023-02-21T08:48:01;3.53;;;2.80;;
29242;SDS011;21110;48.036;15.780;2023-02-21T08:50:28;3.03;;;2.65;;
29242;SDS011;21110;48.036;15.780;2023-02-21T08:52:54;4.80;;;2.80;;
29242;SDS011;21110;48.036;15.780;2023-02-21T08:55:20;3.10;;;2.67;;
29242;SDS011;21110;48.036;15.780;2023-02-21T08:57:48;3.10;;;2.80;;
29242;SDS011;21110;48.036;15.780;2023-02-21T09:00:16;3.65;;;3.35;;
29242;SDS011;21110;48.036;15.780;2023-02-21T09:02:43;3.55;;;3.00;;
29242;SDS011;21110;48.036;15.780;2023-02-21T09:05:14;2.97;;;2.72;;
29242;SDS011;21110;48.036;15.780;2023-02-21T09:07:42;2.70;;;2.50;;
29242;SDS011;21110;48.036;15.780;2023-02-21T09:10:09;2.95;;;2.70;;
29242;SDS011;21110;48.036;15.780;2023-02-21T09:12:35;3.03;;;2.60;;
29242;SDS011;21110;48.036;15.780;2023-02-21T09:15:02;2.67;;;2.47;;
29242;SDS011;21110;48.036;15.780;2023-02-21T09:17:29;2.88;;;2.58;;
29242;SDS011;21110;48.036;15.780;2023-02-21T09:19:58;2.95;;;2.65;;
29242;SDS011;21110;48.036;15.780;2023-02-21T09:22:25;2.90;;;2.70;;
29242;SDS011;21110;48.036;15.780;2023-02-21T09:24:50;2.85;;;2.65;;
29242;SDS011;21110;48.036;15.780;2023-02-21T09:27:16;2.70;;;2.50;;
29242;SDS011;21110;48.036;15.780;2023-02-21T09:29:42;2.70;;;2.50;;
29242;SDS011;21110;48.036;15.780;2023-02-21T09:32:09;2.88;;;2.63;;
29242;SDS011;21110;48.036;15.780;2023-02-21T09:34:35;2.83;;;2.60;;
29242;SDS011;21110;48.036;15.780;2023-02-21T09:37:03;2.58;;;2.38;;
29242;SDS011;21110;48.036;15.780;2023-02-21T09:39:30;3.00;;;2.75;;
29242;SDS011;21110;48.036;15.780;2023-02-21T09:41:55;2.80;;;2.60;;
29242;SDS011;21110;48.036;15.780;2023-02-21T09:44:26;2.60;;;2.40;;
29242;SDS011;21110;48.036;15.780;2023-02-21T09:46:54;2.90;;;2.70;;
29242;SDS011;21110;48.036;15.780;2023-02-21T09:51:59;2.83;;;2.58;;
29242;SDS011;21110;48.036;15.780;2023-02-21T09:54:33;2.85;;;2.58;;
29242;SDS011;21110;48.036;15.780;2023-02-21T09:57:04;3.20;;;2.90;;
29242;SDS011;21110;48.036;15.780;2023-02-21T09:59:34;2.90;;;2.70;;
29242;SDS011;21110;48.036;15.780;2023-02-21T10:12:35;2.80;;;2.60;;
29242;SDS011;21110;48.036;15.780;2023-02-21T10:17:45;2.60;;;2.40;;
29242;SDS011;21110;48.036;15.780;2023-02-21T10:23:36;2.50;;;2.40;;
29242;SDS011;21110;48.036;15.780;2023-02-21T10:26:09;2.70;;;2.50;;
29242;SDS011;21110;48.036;15.780;2023-02-21T10:28:37;2.28;;;2.17;;
29242;SDS011;21110;48.036;15.780;2023-02-21T10:31:08;8.65;;;2.95;;
29242;SDS011;21110;48.036;15.780;2023-02-21T10:33:40;2.60;;;2.47;;
29242;SDS011;21110;48.036;15.780;2023-02-21T10:36:10;2.63;;;2.42;;
29242;SDS011;21110;48.036;15.780;2023-02-21T10:38:36;2.78;;;2.50;;
29242;SDS011;21110;48.036;15.780;2023-02-21T10:41:04;2.60;;;2.40;;
29242;SDS011;21110;48.036;15.780;2023-02-21T10:48:49;2.42;;;2.22;;
29242;SDS011;21110;48.036;15.780;2023-02-21T10:51:27;3.42;;;2.40;;
29242;SDS011;21110;48.036;15.780;2023-02-21T10:54:12;2.20;;;2.10;;
29242;SDS011;21110;48.036;15.780;2023-02-21T10:56:48;2.42;;;2.22;;
29242;SDS011;21110;48.036;15.780;2023-02-21T10:59:29;2.50;;;2.30;;
29242;SDS011;21110;48.036;15.780;2023-02-21T11:04:24;2.35;;;2.10;;
29242;SDS011;21110;48.036;15.780;2023-02-21T11:09:35;2.10;;;2.00;;
29242;SDS011;21110;48.036;15.780;2023-02-21T11:14:42;2.20;;;2.10;;
29242;SDS011;21110;48.036;15.780;2023-02-21T11:17:22;2.50;;;2.30;;
29242;SDS011;21110;48.036;15.780;2023-02-21T11:19:51;2.28;;;2.08;;
29242;SDS011;21110;48.036;15.780;2023-02-21T11:22:22;2.60;;;2.40;;
29242;SDS011;21110;48.036;15.780;2023-02-21T11:24:57;2.03;;;1.92;;
29242;SDS011;21110;48.036;15.780;2023-02-21T11:27:30;2.13;;;2.03;;
29242;SDS011;21110;48.036;15.780;2023-02-21T11:29:58;3.33;;;2.15;;
29242;SDS011;21110;48.036;15.780;2023-02-21T11:32:35;1.92;;;1.83;;
29242;SDS011;21110;48.036;15.780;2023-02-21T11:35:14;2.13;;;2.03;;
29242;SDS011;21110;48.036;15.780;2023-02-21T11:38:04;2.60;;;2.40;;
29242;SDS011;21110;48.036;15.780;2023-02-21T11:43:11;2.38;;;2.17;;
29242;SDS011;21110;48.036;15.780;2023-02-21T11:45:47;2.40;;;2.20;;
29242;SDS011;21110;48.036;15.780;2023-02-21T11:48:33;2.47;;;2.35;;
29242;SDS011;21110;48.036;15.780;2023-02-21T11:51:12;2.70;;;2.50;;
29242;SDS011;21110;48.036;15.780;2023-02-21T11:54:06;2.45;;;2.25;;
29242;SDS011;21110;48.036;15.780;2023-02-21T12:02:19;2.60;;;2.40;;
29242;SDS011;21110;48.036;15.780;2023-02-21T12:08:35;2.38;;;2.28;;
29242;SDS011;21110;48.036;15.780;2023-02-21T12:24:04;4.18;;;2.10;;
29242;SDS011;21110;48.036;15.780;2023-02-21T12:36:49;12.50;;;2.78;;
29242;SDS011;21110;48.036;15.780;2023-02-21T12:47:58;8.43;;;2.50;;
29242;SDS011;21110;48.036;15.780;2023-02-21T12:50:41;8.75;;;2.30;;
29242;SDS011;21110;48.036;15.780;2023-02-21T12:53:14;8.82;;;2.50;;
29242;SDS011;21110;48.036;15.780;2023-02-21T12:55:51;5.95;;;2.22;;
29242;SDS011;21110;48.036;15.780;2023-02-21T13:01:17;13.38;;;2.75;;
29242;SDS011;21110;48.036;15.780;2023-02-21T13:03:54;11.13;;;2.50;;
29242;SDS011;21110;48.036;15.780;2023-02-21T13:06:51;8.45;;;2.58;;
29242;SDS011;21110;48.036;15.780;2023-02-21T13:12:22;10.85;;;2.67;;
29242;SDS011;21110;48.036;15.780;2023-02-21T13:14:59;10.75;;;2.58;;
29242;SDS011;21110;48.036;15.780;2023-02-21T13:17:37;5.22;;;2.30;;
29242;SDS011;21110;48.036;15.780;2023-02-21T13:20:08;7.05;;;2.40;;
29242;SDS011;21110;48.036;15.780;2023-02-21T13:28:30;5.40;;;2.53;;
29242;SDS011;21110;48.036;15.780;2023-02-21T13:31:01;6.50;;;2.30;;
29242;SDS011;21110;48.036;15.780;2023-02-21T13:33:41;9.68;;;2.58;;
29242;SDS011;21110;48.036;15.780;2023-02-21T13:38:44;6.13;;;2.40;;
29242;SDS011;21110;48.036;15.780;2023-02-21T13:41:11;9.40;;;2.50;;
29242;SDS011;21110;48.036;15.780;2023-02-21T13:43:48;10.40;;;2.42;;
29242;SDS011;21110;48.036;15.780;2023-02-21T13:51:51;11.75;;;2.92;;
29242;SDS011;21110;48.036;15.780;2023-02-21T13:54:21;9.35;;;2.95;;
29242;SDS011;21110;48.036;15.780;2023-02-21T13:56:48;12.13;;;3.05;;
29242;SDS011;21110;48.036;15.780;2023-02-21T14:02:28;12.05;;;2.60;;
29242;SDS011;21110;48.036;15.780;2023-02-21T14:04:58;6.28;;;2.63;;
29242;SDS011;21110;48.036;15.780;2023-02-21T14:07:39;7.00;;;2.60;;
29242;SDS011;21110;48.036;15.780;2023-02-21T14:16:07;16.00;;;3.22;;
29242;SDS011;21110;48.036;15.780;2023-02-21T14:18:45;15.75;;;2.90;;
29242;SDS011;21110;48.036;15.780;2023-02-21T14:23:59;14.70;;;2.60;;
29242;SDS011;21110;48.036;15.780;2023-02-21T14:29:36;7.00;;;2.22;;
29242;SDS011;21110;48.036;15.780;2023-02-21T14:37:24;9.55;;;2.70;;
29242;SDS011;21110;48.036;15.780;2023-02-21T14:39:54;6.22;;;2.47;;
29242;SDS011;21110;48.036;15.780;2023-02-21T14:54:22;9.38;;;2.50;;
29242;SDS011;21110;48.036;15.780;2023-02-21T14:59:23;7.38;;;2.45;;
29242;SDS011;21110;48.036;15.780;2023-02-21T15:05:17;7.65;;;2.47;;
29242;SDS011;21110;48.036;15.780;2023-02-21T15:07:49;53.90;;;4.30;;
29242;SDS011;21110;48.036;15.780;2023-02-21T15:12:55;19.13;;;2.85;;
29242;SDS011;21110;48.036;15.780;2023-02-21T15:15:31;15.07;;;2.70;;
29242;SDS011;21110;48.036;15.780;2023-02-21T15:18:22;15.23;;;2.58;;
29242;SDS011;21110;48.036;15.780;2023-02-21T15:21:00;12.50;;;2.83;;
29242;SDS011;21110;48.036;15.780;2023-02-21T15:23:26;9.90;;;2.53;;
29242;SDS011;21110;48.036;15.780;2023-02-21T15:25:54;9.93;;;2.45;;
29242;SDS011;21110;48.036;15.780;2023-02-21T15:28:26;10.68;;;2.55;;
29242;SDS011;21110;48.036;15.780;2023-02-21T15:33:31;9.30;;;2.55;;
29242;SDS011;21110;48.036;15.780;2023-02-21T15:36:19;7.88;;;2.35;;
29242;SDS011;21110;48.036;15.780;2023-02-21T15:41:37;6.25;;;2.50;;
29242;SDS011;21110;48.036;15.780;2023-02-21T15:44:10;8.18;;;2.42;;
29242;SDS011;21110;48.036;15.780;2023-02-21T15:46:47;6.35;;;2.45;;
29242;SDS011;21110;48.036;15.780;2023-02-21T15:49:26;5.47;;;2.30;;
29242;SDS011;21110;48.036;15.780;2023-02-21T15:51:55;12.02;;;2.40;;
29242;SDS011;21110;48.036;15.780;2023-02-21T16:02:47;5.22;;;2.20;;
29242;SDS011;21110;48.036;15.780;2023-02-21T16:05:28;7.60;;;2.30;;
29242;SDS011;21110;48.036;15.780;2023-02-21T16:08:01;5.95;;;2.33;;
29242;SDS011;21110;48.036;15.780;2023-02-21T16:10:28;2.88;;;2.15;;
29242;SDS011;21110;48.036;15.780;2023-02-21T16:12:56;6.53;;;2.42;;
29242;SDS011;21110;48.036;15.780;2023-02-21T16:15:28;5.45;;;2.47;;
29242;SDS011;21110;48.036;15.780;2023-02-21T16:18:04;8.70;;;2.50;;
29242;SDS011;21110;48.036;15.780;2023-02-21T16:20:40;9.02;;;2.40;;
29242;SDS011;21110;48.036;15.780;2023-02-21T16:28:34;5.57;;;2.20;;
29242;SDS011;21110;48.036;15.780;2023-02-21T16:31:04;5.68;;;2.35;;
29242;SDS011;21110;48.036;15.780;2023-02-21T16:33:31;5.32;;;2.45;;
29242;SDS011;21110;48.036;15.780;2023-02-21T16:35:59;6.40;;;2.40;;
29242;SDS011;21110;48.036;15.780;2023-02-21T16:38:29;3.35;;;2.30;;
29242;SDS011;21110;48.036;15.780;2023-02-21T16:40:54;5.25;;;2.30;;
29242;SDS011;21110;48.036;15.780;2023-02-21T16:43:21;5.68;;;2.50;;
29242;SDS011;21110;48.036;15.780;2023-02-21T16:48:19;7.72;;;2.20;;
29242;SDS011;21110;48.036;15.780;2023-02-21T16:50:49;6.93;;;2.30;;
29242;SDS011;21110;48.036;15.780;2023-02-21T16:53:15;5.45;;;2.30;;
29242;SDS011;21110;48.036;15.780;2023-02-21T16:55:42;5.00;;;2.33;;
29242;SDS011;21110;48.036;15.780;2023-02-21T16:58:25;2.97;;;2.00;;
29242;SDS011;21110;48.036;15.780;2023-02-21T17:01:05;15.23;;;2.50;;
29242;SDS011;21110;48.036;15.780;2023-02-21T17:03:48;4.25;;;2.08;;
29242;SDS011;21110;48.036;15.780;2023-02-21T17:06:14;8.63;;;2.30;;
29242;SDS011;21110;48.036;15.780;2023-02-21T17:08:43;8.25;;;2.30;;
29242;SDS011;21110;48.036;15.780;2023-02-21T17:11:08;7.85;;;2.53;;
29242;SDS011;21110;48.036;15.780;2023-02-21T17:13:34;7.20;;;2.80;;
29242;SDS011;21110;48.036;15.780;2023-02-21T17:18:44;4.65;;;2.40;;
29242;SDS011;21110;48.036;15.780;2023-02-21T17:21:10;7.75;;;2.60;;
29242;SDS011;21110;48.036;15.780;2023-02-21T17:23:36;3.38;;;2.10;;
29242;SDS011;21110;48.036;15.780;2023-02-21T17:26:02;3.80;;;2.20;;
29242;SDS011;21110;48.036;15.780;2023-02-21T17:28:29;9.70;;;2.50;;
29242;SDS011;21110;48.036;15.780;2023-02-21T17:30:54;7.95;;;3.08;;
29242;SDS011;21110;48.036;15.780;2023-02-21T17:33:20;11.05;;;3.50;;
29242;SDS011;21110;48.036;15.780;2023-02-21T17:35:46;8.00;;;4.20;;
29242;SDS011;21110;48.036;15.780;2023-02-21T17:38:12;6.60;;;3.42;;
29242;SDS011;21110;48.036;15.780;2023-02-21T17:40:38;6.18;;;3.60;;
29242;SDS011;21110;48.036;15.780;2023-02-21T17:43:03;6.55;;;4.00;;
29242;SDS011;21110;48.036;15.780;2023-02-21T17:45:32;6.03;;;4.25;;
29242;SDS011;21110;48.036;15.780;2023-02-21T17:48:00;6.03;;;4.20;;
29242;SDS011;21110;48.036;15.780;2023-02-21T17:50:28;6.32;;;3.88;;
29242;SDS011;21110;48.036;15.780;2023-02-21T17:52:53;6.80;;;4.60;;
29242;SDS011;21110;48.036;15.780;2023-02-21T17:55:20;5.15;;;4.57;;
29242;SDS011;21110;48.036;15.780;2023-02-21T17:57:49;6.18;;;4.47;;
29242;SDS011;21110;48.036;15.780;2023-02-21T18:00:25;5.82;;;4.40;;
29242;SDS011;21110;48.036;15.780;2023-02-21T18:02:53;5.78;;;4.22;;
29242;SDS011;21110;48.036;15.780;2023-02-21T18:05:20;5.53;;;4.13;;
29242;SDS011;21110;48.036;15.780;2023-02-21T18:07:49;6.40;;;4.03;;
29242;SDS011;21110;48.036;15.780;2023-02-21T18:10:20;9.90;;;4.00;;
29242;SDS011;21110;48.036;15.780;2023-02-21T18:12:48;30.45;;;4.95;;